sensor_id;sensor_type;location;lat;lon;timestamp;P1;durP1;ratioP1;P2;durP2;ratioP2
18082;SDS011;9168;51.194;6.840;2023-07-29T00:01:10;4.18;;;2.70;;
18082;SDS011;9168;51.194;6.840;2023-07-29T00:03:37;5.82;;;2.90;;
18082;SDS011;9168;51.194;6.840;2023-07-29T00:06:04;4.03;;;2.65;;
18082;SDS011;9168;51.194;6.840;2023-07-29T00:08:31;5.25;;;3.10;;
18082;SDS011;9168;51.194;6.840;2023-07-29T00:10:58;7.75;;;3.08;;
18082;SDS011;9168;51.194;6.840;2023-07-29T00:13:26;6.35;;;3.10;;
18082;SDS011;9168;51.194;6.840;2023-07-29T00:15:53;9.00;;;3.33;;
18082;SDS011;9168;51.194;6.840;2023-07-29T00:18:20;7.10;;;3.45;;
18082;SDS011;9168;51.194;6.840;2023-07-29T00:20:48;4.53;;;3.03;;
18082;SDS011;9168;51.194;6.840;2023-07-29T00:23:16;9.52;;;3.38;;
18082;SDS011;9168;51.194;6.840;2023-07-29T00:25:44;6.78;;;3.22;;
18082;SDS011;9168;51.194;6.840;2023-07-29T00:28:11;13.68;;;3.95;;
18082;SDS011;9168;51.194;6.840;2023-07-29T00:30:39;7.15;;;3.50;;
18082;SDS011;9168;51.194;6.840;2023-07-29T00:33:06;14.77;;;4.13;;
18082;SDS011;9168;51.194;6.840;2023-07-29T00:35:34;6.85;;;3.30;;
18082;SDS011;9168;51.194;6.840;2023-07-29T00:38:01;9.15;;;3.67;;
18082;SDS011;9168;51.194;6.840;2023-07-29T00:40:28;7.07;;;3.45;;
18082;SDS011;9168;51.194;6.840;2023-07-29T00:42:57;13.38;;;3.55;;
18082;SDS011;9168;51.194;6.840;2023-07-29T00:45:24;9.98;;;3.90;;
18082;SDS011;9168;51.194;6.840;2023-07-29T00:47:54;10.43;;;3.75;;
18082;SDS011;9168;51.194;6.840;2023-07-29T00:50:21;7.10;;;3.97;;
18082;SDS011;9168;51.194;6.840;2023-07-29T00:52:48;7.15;;;3.80;;
18082;SDS011;9168;51.194;6.840;2023-07-29T00:55:16;11.98;;;3.90;;
18082;SDS011;9168;51.194;6.840;2023-07-29T00:57:43;10.60;;;4.35;;
18082;SDS011;9168;51.194;6.840;2023-07-29T01:00:13;7.88;;;4.03;;
18082;SDS011;9168;51.194;6.840;2023-07-29T01:02:40;9.02;;;4.60;;
18082;SDS011;9168;51.194;6.840;2023-07-29T01:05:10;8.63;;;4.10;;
18082;SDS011;9168;51.194;6.840;2023-07-29T01:07:42;9.45;;;4.55;;
18082;SDS011;9168;51.194;6.840;2023-07-29T01:10:17;6.97;;;4.30;;
18082;SDS011;9168;51.194;6.840;2023-07-29T01:12:51;8.60;;;4.32;;
18082;SDS011;9168;51.194;6.840;2023-07-29T01:15:22;6.05;;;4.40;;
18082;SDS011;9168;51.194;6.840;2023-07-29T01:17:54;11.38;;;3.95;;
18082;SDS011;9168;51.194;6.840;2023-07-29T01:20:26;8.52;;;4.45;;
18082;SDS011;9168;51.194;6.840;2023-07-29T01:22:58;15.55;;;4.65;;
18082;SDS011;9168;51.194;6.840;2023-07-29T01:25:26;11.18;;;4.90;;
18082;SDS011;9168;51.194;6.840;2023-07-29T01:27:53;12.88;;;4.80;;
18082;SDS011;9168;51.194;6.840;2023-07-29T01:30:22;8.98;;;4.40;;
18082;SDS011;9168;51.194;6.840;2023-07-29T01:32:55;12.63;;;4.95;;
18082;SDS011;9168;51.194;6.840;2023-07-29T01:35:28;10.23;;;4.70;;
18082;SDS011;9168;51.194;6.840;2023-07-29T01:37:59;8.40;;;4.63;;
18082;SDS011;9168;51.194;6.840;2023-07-29T01:40:32;8.15;;;4.70;;
18082;SDS011;9168;51.194;6.840;2023-07-29T01:43:00;10.73;;;4.70;;
18082;SDS011;9168;51.194;6.840;2023-07-29T01:45:27;8.70;;;4.53;;
18082;SDS011;9168;51.194;6.840;2023-07-29T01:47:56;12.98;;;4.97;;
18082;SDS011;9168;51.194;6.840;2023-07-29T01:50:23;14.20;;;4.63;;
18082;SDS011;9168;51.194;6.840;2023-07-29T01:52:50;10.90;;;5.20;;
18082;SDS011;9168;51.194;6.840;2023-07-29T01:55:17;9.48;;;4.85;;
18082;SDS011;9168;51.194;6.840;2023-07-29T01:57:45;16.40;;;5.10;;
18082;SDS011;9168;51.194;6.840;2023-07-29T02:00:12;8.63;;;4.20;;
18082;SDS011;9168;51.194;6.840;2023-07-29T02:02:39;8.32;;;4.13;;
18082;SDS011;9168;51.194;6.840;2023-07-29T02:05:06;8.13;;;4.15;;
18082;SDS011;9168;51.194;6.840;2023-07-29T02:07:33;8.43;;;5.28;;
18082;SDS011;9168;51.194;6.840;2023-07-29T02:10:00;13.90;;;3.97;;
18082;SDS011;9168;51.194;6.840;2023-07-29T02:12:27;11.40;;;4.38;;
18082;SDS011;9168;51.194;6.840;2023-07-29T02:14:55;7.95;;;4.30;;
18082;SDS011;9168;51.194;6.840;2023-07-29T02:17:22;12.73;;;4.38;;
18082;SDS011;9168;51.194;6.840;2023-07-29T02:19:49;6.38;;;4.00;;
18082;SDS011;9168;51.194;6.840;2023-07-29T02:22:16;5.55;;;4.00;;
18082;SDS011;9168;51.194;6.840;2023-07-29T02:24:44;8.60;;;4.25;;
18082;SDS011;9168;51.194;6.840;2023-07-29T02:27:11;7.25;;;4.25;;
18082;SDS011;9168;51.194;6.840;2023-07-29T02:29:38;10.50;;;4.05;;
18082;SDS011;9168;51.194;6.840;2023-07-29T02:32:06;10.82;;;4.32;;
18082;SDS011;9168;51.194;6.840;2023-07-29T02:34:33;8.95;;;3.70;;
18082;SDS011;9168;51.194;6.840;2023-07-29T02:37:00;5.13;;;4.20;;
18082;SDS011;9168;51.194;6.840;2023-07-29T02:39:27;8.73;;;3.95;;
18082;SDS011;9168;51.194;6.840;2023-07-29T02:41:54;7.32;;;4.03;;
18082;SDS011;9168;51.194;6.840;2023-07-29T02:44:21;10.52;;;3.60;;
18082;SDS011;9168;51.194;6.840;2023-07-29T02:46:48;7.22;;;3.45;;
18082;SDS011;9168;51.194;6.840;2023-07-29T02:49:16;5.15;;;3.22;;
18082;SDS011;9168;51.194;6.840;2023-07-29T02:51:43;8.18;;;3.28;;
18082;SDS011;9168;51.194;6.840;2023-07-29T02:54:09;11.20;;;3.15;;
18082;SDS011;9168;51.194;6.840;2023-07-29T02:56:36;9.60;;;3.38;;
18082;SDS011;9168;51.194;6.840;2023-07-29T02:59:03;6.85;;;3.00;;
18082;SDS011;9168;51.194;6.840;2023-07-29T03:01:30;4.03;;;2.92;;
18082;SDS011;9168;51.194;6.840;2023-07-29T03:03:57;3.70;;;3.20;;
18082;SDS011;9168;51.194;6.840;2023-07-29T03:06:25;6.55;;;2.83;;
18082;SDS011;9168;51.194;6.840;2023-07-29T03:08:52;9.38;;;3.15;;
18082;SDS011;9168;51.194;6.840;2023-07-29T03:11:19;6.10;;;3.30;;
18082;SDS011;9168;51.194;6.840;2023-07-29T03:13:46;4.50;;;3.13;;
18082;SDS011;9168;51.194;6.840;2023-07-29T03:16:13;7.75;;;3.15;;
18082;SDS011;9168;51.194;6.840;2023-07-29T03:18:41;8.10;;;3.25;;
18082;SDS011;9168;51.194;6.840;2023-07-29T03:21:09;10.85;;;3.42;;
18082;SDS011;9168;51.194;6.840;2023-07-29T03:23:37;4.47;;;3.22;;
18082;SDS011;9168;51.194;6.840;2023-07-29T03:26:05;8.70;;;3.20;;
18082;SDS011;9168;51.194;6.840;2023-07-29T03:28:35;6.22;;;3.17;;
18082;SDS011;9168;51.194;6.840;2023-07-29T03:31:03;14.73;;;3.67;;
18082;SDS011;9168;51.194;6.840;2023-07-29T03:33:30;15.70;;;3.80;;
18082;SDS011;9168;51.194;6.840;2023-07-29T03:35:57;7.80;;;3.20;;
18082;SDS011;9168;51.194;6.840;2023-07-29T03:38:24;4.72;;;3.22;;
18082;SDS011;9168;51.194;6.840;2023-07-29T03:40:52;7.80;;;3.28;;
18082;SDS011;9168;51.194;6.840;2023-07-29T03:43:19;6.95;;;3.58;;
18082;SDS011;9168;51.194;6.840;2023-07-29T03:45:46;6.85;;;3.30;;
18082;SDS011;9168;51.194;6.840;2023-07-29T03:48:13;7.35;;;3.20;;
18082;SDS011;9168;51.194;6.840;2023-07-29T03:50:40;5.18;;;3.30;;
18082;SDS011;9168;51.194;6.840;2023-07-29T03:53:07;4.97;;;3.22;;
18082;SDS011;9168;51.194;6.840;2023-07-29T03:55:35;7.05;;;3.42;;
18082;SDS011;9168;51.194;6.840;2023-07-29T03:58:03;5.25;;;3.05;;
18082;SDS011;9168;51.194;6.840;2023-07-29T04:00:30;6.75;;;3.58;;
18082;SDS011;9168;51.194;6.840;2023-07-29T04:02:57;6.20;;;3.40;;
18082;SDS011;9168;51.194;6.840;2023-07-29T04:05:24;9.77;;;3.58;;
18082;SDS011;9168;51.194;6.840;2023-07-29T04:07:51;10.48;;;3.40;;
18082;SDS011;9168;51.194;6.840;2023-07-29T04:10:18;9.15;;;3.30;;
18082;SDS011;9168;51.194;6.840;2023-07-29T04:12:45;11.43;;;3.70;;
18082;SDS011;9168;51.194;6.840;2023-07-29T04:15:14;15.10;;;4.20;;
18082;SDS011;9168;51.194;6.840;2023-07-29T04:17:41;12.68;;;3.60;;
18082;SDS011;9168;51.194;6.840;2023-07-29T04:20:08;12.93;;;3.40;;
18082;SDS011;9168;51.194;6.840;2023-07-29T04:22:36;12.27;;;3.63;;
18082;SDS011;9168;51.194;6.840;2023-07-29T04:25:03;8.73;;;3.38;;
18082;SDS011;9168;51.194;6.840;2023-07-29T04:27:31;9.07;;;3.80;;
18082;SDS011;9168;51.194;6.840;2023-07-29T04:29:58;11.52;;;3.35;;
18082;SDS011;9168;51.194;6.840;2023-07-29T04:32:26;9.07;;;3.60;;
18082;SDS011;9168;51.194;6.840;2023-07-29T04:34:53;16.00;;;3.97;;
18082;SDS011;9168;51.194;6.840;2023-07-29T04:37:20;8.38;;;4.00;;
18082;SDS011;9168;51.194;6.840;2023-07-29T04:39:47;8.25;;;3.30;;
18082;SDS011;9168;51.194;6.840;2023-07-29T04:42:13;7.15;;;3.67;;
18082;SDS011;9168;51.194;6.840;2023-07-29T04:44:40;8.57;;;3.80;;
18082;SDS011;9168;51.194;6.840;2023-07-29T04:47:08;10.52;;;4.10;;
18082;SDS011;9168;51.194;6.840;2023-07-29T04:49:37;12.00;;;4.55;;
18082;SDS011;9168;51.194;6.840;2023-07-29T04:52:04;7.53;;;3.80;;
18082;SDS011;9168;51.194;6.840;2023-07-29T04:54:31;11.45;;;4.20;;
18082;SDS011;9168;51.194;6.840;2023-07-29T04:56:58;11.23;;;3.75;;
18082;SDS011;9168;51.194;6.840;2023-07-29T04:59:25;7.10;;;3.67;;
18082;SDS011;9168;51.194;6.840;2023-07-29T05:01:52;7.13;;;3.90;;
18082;SDS011;9168;51.194;6.840;2023-07-29T05:04:19;6.03;;;3.70;;
18082;SDS011;9168;51.194;6.840;2023-07-29T05:06:47;12.18;;;4.57;;
18082;SDS011;9168;51.194;6.840;2023-07-29T05:09:16;9.88;;;3.70;;
18082;SDS011;9168;51.194;6.840;2023-07-29T05:11:43;11.40;;;4.18;;
18082;SDS011;9168;51.194;6.840;2023-07-29T05:14:11;13.32;;;3.75;;
18082;SDS011;9168;51.194;6.840;2023-07-29T05:16:38;10.77;;;4.30;;
18082;SDS011;9168;51.194;6.840;2023-07-29T05:19:05;12.35;;;4.18;;
18082;SDS011;9168;51.194;6.840;2023-07-29T05:21:32;9.40;;;4.68;;
18082;SDS011;9168;51.194;6.840;2023-07-29T05:24:01;4.85;;;3.88;;
18082;SDS011;9168;51.194;6.840;2023-07-29T05:26:28;5.40;;;3.80;;
18082;SDS011;9168;51.194;6.840;2023-07-29T05:28:54;9.75;;;3.70;;
18082;SDS011;9168;51.194;6.840;2023-07-29T05:31:22;10.20;;;3.85;;
18082;SDS011;9168;51.194;6.840;2023-07-29T05:33:49;12.43;;;4.15;;
18082;SDS011;9168;51.194;6.840;2023-07-29T05:36:15;6.68;;;4.07;;
18082;SDS011;9168;51.194;6.840;2023-07-29T05:38:42;8.82;;;4.35;;
18082;SDS011;9168;51.194;6.840;2023-07-29T05:41:11;12.30;;;4.50;;
18082;SDS011;9168;51.194;6.840;2023-07-29T05:43:37;11.05;;;4.20;;
18082;SDS011;9168;51.194;6.840;2023-07-29T05:46:05;8.23;;;4.60;;
18082;SDS011;9168;51.194;6.840;2023-07-29T05:48:32;11.50;;;4.40;;
18082;SDS011;9168;51.194;6.840;2023-07-29T05:50:59;5.55;;;3.88;;
18082;SDS011;9168;51.194;6.840;2023-07-29T05:53:25;10.82;;;4.35;;
18082;SDS011;9168;51.194;6.840;2023-07-29T05:55:52;10.60;;;4.60;;
18082;SDS011;9168;51.194;6.840;2023-07-29T05:58:21;8.07;;;4.65;;
18082;SDS011;9168;51.194;6.840;2023-07-29T06:00:47;8.13;;;4.30;;
18082;SDS011;9168;51.194;6.840;2023-07-29T06:03:14;9.40;;;4.07;;
18082;SDS011;9168;51.194;6.840;2023-07-29T06:05:41;8.95;;;4.38;;
18082;SDS011;9168;51.194;6.840;2023-07-29T06:08:08;6.40;;;4.18;;
18082;SDS011;9168;51.194;6.840;2023-07-29T06:10:35;5.57;;;3.90;;
18082;SDS011;9168;51.194;6.840;2023-07-29T06:13:02;9.98;;;4.10;;
18082;SDS011;9168;51.194;6.840;2023-07-29T06:15:31;10.25;;;4.45;;
18082;SDS011;9168;51.194;6.840;2023-07-29T06:17:57;6.18;;;3.53;;
18082;SDS011;9168;51.194;6.840;2023-07-29T06:20:24;9.80;;;4.30;;
18082;SDS011;9168;51.194;6.840;2023-07-29T06:22:51;11.23;;;4.22;;
18082;SDS011;9168;51.194;6.840;2023-07-29T06:25:18;7.18;;;3.88;;
18082;SDS011;9168;51.194;6.840;2023-07-29T06:27:47;10.00;;;3.97;;
18082;SDS011;9168;51.194;6.840;2023-07-29T06:30:14;8.05;;;3.85;;
18082;SDS011;9168;51.194;6.840;2023-07-29T06:32:42;7.35;;;3.50;;
18082;SDS011;9168;51.194;6.840;2023-07-29T06:35:09;10.63;;;3.03;;
18082;SDS011;9168;51.194;6.840;2023-07-29T06:37:36;8.15;;;3.00;;
18082;SDS011;9168;51.194;6.840;2023-07-29T06:40:03;8.00;;;3.05;;
18082;SDS011;9168;51.194;6.840;2023-07-29T06:42:31;9.75;;;2.60;;
18082;SDS011;9168;51.194;6.840;2023-07-29T06:44:57;8.02;;;2.53;;
18082;SDS011;9168;51.194;6.840;2023-07-29T06:47:25;7.65;;;2.53;;
18082;SDS011;9168;51.194;6.840;2023-07-29T06:49:54;4.50;;;2.70;;
18082;SDS011;9168;51.194;6.840;2023-07-29T06:52:21;6.20;;;2.55;;
18082;SDS011;9168;51.194;6.840;2023-07-29T06:54:48;9.32;;;2.80;;
18082;SDS011;9168;51.194;6.840;2023-07-29T06:57:15;8.38;;;2.60;;
18082;SDS011;9168;51.194;6.840;2023-07-29T06:59:42;7.90;;;2.60;;
18082;SDS011;9168;51.194;6.840;2023-07-29T07:02:08;5.10;;;2.60;;
18082;SDS011;9168;51.194;6.840;2023-07-29T07:04:35;7.07;;;2.35;;
18082;SDS011;9168;51.194;6.840;2023-07-29T07:07:04;3.38;;;2.33;;
18082;SDS011;9168;51.194;6.840;2023-07-29T07:09:31;5.50;;;2.60;;
18082;SDS011;9168;51.194;6.840;2023-07-29T07:11:58;6.53;;;2.35;;
18082;SDS011;9168;51.194;6.840;2023-07-29T07:14:25;5.78;;;2.70;;
18082;SDS011;9168;51.194;6.840;2023-07-29T07:16:52;10.43;;;2.83;;
18082;SDS011;9168;51.194;6.840;2023-07-29T07:19:18;5.05;;;2.80;;
18082;SDS011;9168;51.194;6.840;2023-07-29T07:21:45;4.80;;;2.50;;
18082;SDS011;9168;51.194;6.840;2023-07-29T07:24:13;8.02;;;2.80;;
18082;SDS011;9168;51.194;6.840;2023-07-29T07:26:40;6.60;;;2.60;;
18082;SDS011;9168;51.194;6.840;2023-07-29T07:29:07;7.53;;;3.10;;
18082;SDS011;9168;51.194;6.840;2023-07-29T07:31:34;5.10;;;2.45;;
18082;SDS011;9168;51.194;6.840;2023-07-29T07:34:01;5.53;;;2.92;;
18082;SDS011;9168;51.194;6.840;2023-07-29T07:36:29;6.03;;;2.22;;
18082;SDS011;9168;51.194;6.840;2023-07-29T07:38:57;8.70;;;2.42;;
18082;SDS011;9168;51.194;6.840;2023-07-29T07:41:25;6.75;;;2.35;;
18082;SDS011;9168;51.194;6.840;2023-07-29T07:43:52;5.65;;;2.40;;
18082;SDS011;9168;51.194;6.840;2023-07-29T07:46:19;5.63;;;2.55;;
18082;SDS011;9168;51.194;6.840;2023-07-29T07:48:46;11.05;;;2.78;;
18082;SDS011;9168;51.194;6.840;2023-07-29T07:51:13;5.60;;;2.53;;
18082;SDS011;9168;51.194;6.840;2023-07-29T07:53:40;4.40;;;2.45;;
18082;SDS011;9168;51.194;6.840;2023-07-29T07:56:07;6.28;;;2.50;;
18082;SDS011;9168;51.194;6.840;2023-07-29T07:58:35;3.53;;;2.00;;
18082;SDS011;9168;51.194;6.840;2023-07-29T08:01:02;4.13;;;2.20;;
18082;SDS011;9168;51.194;6.840;2023-07-29T08:03:29;3.83;;;1.65;;
18082;SDS011;9168;51.194;6.840;2023-07-29T08:05:57;7.80;;;2.45;;
18082;SDS011;9168;51.194;6.840;2023-07-29T08:08:24;5.28;;;2.15;;
18082;SDS011;9168;51.194;6.840;2023-07-29T08:10:52;2.70;;;1.90;;
18082;SDS011;9168;51.194;6.840;2023-07-29T08:13:19;5.40;;;2.13;;
18082;SDS011;9168;51.194;6.840;2023-07-29T08:15:47;4.40;;;2.05;;
18082;SDS011;9168;51.194;6.840;2023-07-29T08:18:15;6.47;;;2.00;;
18082;SDS011;9168;51.194;6.840;2023-07-29T08:20:51;4.65;;;1.52;;
18082;SDS011;9168;51.194;6.840;2023-07-29T08:23:19;2.42;;;1.73;;
18082;SDS011;9168;51.194;6.840;2023-07-29T08:25:50;4.18;;;1.58;;
18082;SDS011;9168;51.194;6.840;2023-07-29T08:28:18;1.70;;;1.52;;
18082;SDS011;9168;51.194;6.840;2023-07-29T08:30:45;4.57;;;1.67;;
18082;SDS011;9168;51.194;6.840;2023-07-29T08:33:13;4.13;;;1.58;;
18082;SDS011;9168;51.194;6.840;2023-07-29T08:35:40;2.05;;;1.30;;
18082;SDS011;9168;51.194;6.840;2023-07-29T08:38:07;4.45;;;1.60;;
18082;SDS011;9168;51.194;6.840;2023-07-29T08:40:34;3.00;;;1.10;;
18082;SDS011;9168;51.194;6.840;2023-07-29T08:43:03;1.90;;;1.40;;
18082;SDS011;9168;51.194;6.840;2023-07-29T08:45:31;2.53;;;1.23;;
18082;SDS011;9168;51.194;6.840;2023-07-29T08:48:02;3.42;;;1.58;;
18082;SDS011;9168;51.194;6.840;2023-07-29T08:50:34;1.98;;;1.40;;
18082;SDS011;9168;51.194;6.840;2023-07-29T08:53:03;2.55;;;1.40;;
18082;SDS011;9168;51.194;6.840;2023-07-29T08:55:30;2.63;;;1.65;;
18082;SDS011;9168;51.194;6.840;2023-07-29T08:57:58;5.18;;;1.60;;
18082;SDS011;9168;51.194;6.840;2023-07-29T09:00:26;1.98;;;1.38;;
18082;SDS011;9168;51.194;6.840;2023-07-29T09:02:53;2.80;;;1.63;;
18082;SDS011;9168;51.194;6.840;2023-07-29T09:05:20;2.67;;;1.60;;
18082;SDS011;9168;51.194;6.840;2023-07-29T09:07:49;5.60;;;1.40;;
18082;SDS011;9168;51.194;6.840;2023-07-29T09:10:20;2.90;;;1.42;;
18082;SDS011;9168;51.194;6.840;2023-07-29T09:12:47;1.92;;;1.15;;
18082;SDS011;9168;51.194;6.840;2023-07-29T09:15:25;6.85;;;1.40;;
18082;SDS011;9168;51.194;6.840;2023-07-29T09:17:54;2.00;;;1.30;;
18082;SDS011;9168;51.194;6.840;2023-07-29T09:20:25;4.50;;;1.60;;
18082;SDS011;9168;51.194;6.840;2023-07-29T09:22:55;1.95;;;1.35;;
18082;SDS011;9168;51.194;6.840;2023-07-29T09:25:24;3.30;;;1.60;;
18082;SDS011;9168;51.194;6.840;2023-07-29T09:27:52;4.45;;;1.83;;
18082;SDS011;9168;51.194;6.840;2023-07-29T09:30:19;3.20;;;1.48;;
18082;SDS011;9168;51.194;6.840;2023-07-29T09:32:47;6.85;;;1.30;;
18082;SDS011;9168;51.194;6.840;2023-07-29T09:35:18;2.53;;;1.30;;
18082;SDS011;9168;51.194;6.840;2023-07-29T09:37:45;2.28;;;1.50;;
18082;SDS011;9168;51.194;6.840;2023-07-29T09:40:14;2.20;;;1.52;;
18082;SDS011;9168;51.194;6.840;2023-07-29T09:42:47;3.05;;;1.80;;
18082;SDS011;9168;51.194;6.840;2023-07-29T09:45:19;4.07;;;1.42;;
18082;SDS011;9168;51.194;6.840;2023-07-29T09:47:46;2.63;;;1.70;;
18082;SDS011;9168;51.194;6.840;2023-07-29T09:50:14;2.25;;;1.40;;
18082;SDS011;9168;51.194;6.840;2023-07-29T09:52:41;2.15;;;1.50;;
18082;SDS011;9168;51.194;6.840;2023-07-29T09:55:09;5.75;;;1.35;;
18082;SDS011;9168;51.194;6.840;2023-07-29T09:57:39;3.63;;;1.42;;
18082;SDS011;9168;51.194;6.840;2023-07-29T10:00:06;6.93;;;1.50;;
18082;SDS011;9168;51.194;6.840;2023-07-29T10:02:36;5.28;;;1.73;;
18082;SDS011;9168;51.194;6.840;2023-07-29T10:05:05;2.55;;;1.48;;
18082;SDS011;9168;51.194;6.840;2023-07-29T10:07:33;4.95;;;1.75;;
18082;SDS011;9168;51.194;6.840;2023-07-29T10:10:02;3.67;;;1.70;;
18082;SDS011;9168;51.194;6.840;2023-07-29T10:12:31;5.40;;;1.70;;
18082;SDS011;9168;51.194;6.840;2023-07-29T10:15:03;5.78;;;1.83;;
18082;SDS011;9168;51.194;6.840;2023-07-29T10:17:31;5.50;;;1.70;;
18082;SDS011;9168;51.194;6.840;2023-07-29T10:20:01;3.83;;;1.90;;
18082;SDS011;9168;51.194;6.840;2023-07-29T10:22:32;7.05;;;1.90;;
18082;SDS011;9168;51.194;6.840;2023-07-29T10:25:03;2.45;;;1.80;;
18082;SDS011;9168;51.194;6.840;2023-07-29T10:27:33;6.90;;;1.95;;
18082;SDS011;9168;51.194;6.840;2023-07-29T10:30:10;2.97;;;1.80;;
18082;SDS011;9168;51.194;6.840;2023-07-29T10:32:38;2.35;;;1.77;;
18082;SDS011;9168;51.194;6.840;2023-07-29T10:35:07;5.05;;;1.90;;
18082;SDS011;9168;51.194;6.840;2023-07-29T10:37:35;7.28;;;2.00;;
18082;SDS011;9168;51.194;6.840;2023-07-29T10:40:05;3.03;;;1.80;;
18082;SDS011;9168;51.194;6.840;2023-07-29T10:42:33;3.95;;;1.75;;
18082;SDS011;9168;51.194;6.840;2023-07-29T10:45:00;8.23;;;1.80;;
18082;SDS011;9168;51.194;6.840;2023-07-29T10:47:44;6.30;;;2.10;;
18082;SDS011;9168;51.194;6.840;2023-07-29T10:50:16;3.35;;;1.70;;
18082;SDS011;9168;51.194;6.840;2023-07-29T10:52:46;5.00;;;1.75;;
18082;SDS011;9168;51.194;6.840;2023-07-29T10:55:29;5.45;;;2.15;;
18082;SDS011;9168;51.194;6.840;2023-07-29T10:58:04;5.43;;;1.90;;
18082;SDS011;9168;51.194;6.840;2023-07-29T11:00:33;3.58;;;1.77;;
18082;SDS011;9168;51.194;6.840;2023-07-29T11:03:02;6.72;;;1.83;;
18082;SDS011;9168;51.194;6.840;2023-07-29T11:05:47;9.00;;;1.92;;
18082;SDS011;9168;51.194;6.840;2023-07-29T11:08:16;3.42;;;1.65;;
18082;SDS011;9168;51.194;6.840;2023-07-29T11:11:05;2.78;;;1.70;;
18082;SDS011;9168;51.194;6.840;2023-07-29T11:13:34;5.57;;;2.00;;
18082;SDS011;9168;51.194;6.840;2023-07-29T11:16:02;3.58;;;1.90;;
18082;SDS011;9168;51.194;6.840;2023-07-29T11:18:32;4.35;;;1.95;;
18082;SDS011;9168;51.194;6.840;2023-07-29T11:21:00;3.95;;;1.95;;
18082;SDS011;9168;51.194;6.840;2023-07-29T11:23:29;6.15;;;1.85;;
18082;SDS011;9168;51.194;6.840;2023-07-29T11:25:57;3.75;;;1.73;;
18082;SDS011;9168;51.194;6.840;2023-07-29T11:28:25;3.67;;;2.05;;
18082;SDS011;9168;51.194;6.840;2023-07-29T11:30:52;4.75;;;1.95;;
18082;SDS011;9168;51.194;6.840;2023-07-29T11:33:20;5.38;;;2.00;;
18082;SDS011;9168;51.194;6.840;2023-07-29T11:35:50;3.80;;;1.70;;
18082;SDS011;9168;51.194;6.840;2023-07-29T11:38:17;5.65;;;1.65;;
18082;SDS011;9168;51.194;6.840;2023-07-29T11:40:53;6.47;;;2.15;;
18082;SDS011;9168;51.194;6.840;2023-07-29T11:43:21;5.07;;;1.80;;
18082;SDS011;9168;51.194;6.840;2023-07-29T11:45:48;4.80;;;2.10;;
18082;SDS011;9168;51.194;6.840;2023-07-29T11:48:15;3.47;;;1.92;;
18082;SDS011;9168;51.194;6.840;2023-07-29T11:50:41;4.45;;;2.10;;
18082;SDS011;9168;51.194;6.840;2023-07-29T11:53:10;4.63;;;1.88;;
18082;SDS011;9168;51.194;6.840;2023-07-29T11:55:37;4.80;;;2.00;;
18082;SDS011;9168;51.194;6.840;2023-07-29T11:58:04;4.00;;;2.25;;
18082;SDS011;9168;51.194;6.840;2023-07-29T12:00:31;4.00;;;2.30;;
18082;SDS011;9168;51.194;6.840;2023-07-29T12:02:58;2.80;;;1.95;;
18082;SDS011;9168;51.194;6.840;2023-07-29T12:05:26;6.47;;;2.05;;
18082;SDS011;9168;51.194;6.840;2023-07-29T12:07:53;6.10;;;2.40;;
18082;SDS011;9168;51.194;6.840;2023-07-29T12:10:22;3.17;;;2.00;;
18082;SDS011;9168;51.194;6.840;2023-07-29T12:12:49;7.68;;;2.10;;
18082;SDS011;9168;51.194;6.840;2023-07-29T12:15:23;3.88;;;2.20;;
18082;SDS011;9168;51.194;6.840;2023-07-29T12:17:52;7.68;;;2.35;;
18082;SDS011;9168;51.194;6.840;2023-07-29T12:20:21;5.22;;;2.13;;
18082;SDS011;9168;51.194;6.840;2023-07-29T12:22:51;3.30;;;2.13;;
18082;SDS011;9168;51.194;6.840;2023-07-29T12:25:19;4.80;;;2.15;;
18082;SDS011;9168;51.194;6.840;2023-07-29T12:27:47;6.55;;;2.30;;
18082;SDS011;9168;51.194;6.840;2023-07-29T12:30:14;4.90;;;2.20;;
18082;SDS011;9168;51.194;6.840;2023-07-29T12:32:45;6.30;;;1.92;;
18082;SDS011;9168;51.194;6.840;2023-07-29T12:35:13;4.85;;;2.10;;
18082;SDS011;9168;51.194;6.840;2023-07-29T12:37:40;3.30;;;2.05;;
18082;SDS011;9168;51.194;6.840;2023-07-29T12:40:09;5.75;;;2.30;;
18082;SDS011;9168;51.194;6.840;2023-07-29T12:42:52;2.25;;;1.85;;
18082;SDS011;9168;51.194;6.840;2023-07-29T12:45:20;2.88;;;1.90;;
18082;SDS011;9168;51.194;6.840;2023-07-29T12:47:48;4.90;;;2.00;;
18082;SDS011;9168;51.194;6.840;2023-07-29T12:50:15;5.90;;;2.10;;
18082;SDS011;9168;51.194;6.840;2023-07-29T12:52:43;5.53;;;2.20;;
18082;SDS011;9168;51.194;6.840;2023-07-29T12:55:09;4.78;;;2.00;;
18082;SDS011;9168;51.194;6.840;2023-07-29T12:57:39;2.88;;;1.98;;
18082;SDS011;9168;51.194;6.840;2023-07-29T13:00:09;2.40;;;1.88;;
18082;SDS011;9168;51.194;6.840;2023-07-29T13:02:37;5.93;;;2.70;;
18082;SDS011;9168;51.194;6.840;2023-07-29T13:05:04;5.47;;;2.03;;
18082;SDS011;9168;51.194;6.840;2023-07-29T13:07:32;6.03;;;2.10;;
18082;SDS011;9168;51.194;6.840;2023-07-29T13:09:59;2.50;;;2.00;;
18082;SDS011;9168;51.194;6.840;2023-07-29T13:12:26;3.45;;;2.00;;
18082;SDS011;9168;51.194;6.840;2023-07-29T13:14:53;4.60;;;2.33;;
18082;SDS011;9168;51.194;6.840;2023-07-29T13:17:22;4.32;;;2.05;;
18082;SDS011;9168;51.194;6.840;2023-07-29T13:19:49;3.03;;;2.25;;
18082;SDS011;9168;51.194;6.840;2023-07-29T13:22:16;5.18;;;2.28;;
18082;SDS011;9168;51.194;6.840;2023-07-29T13:24:43;2.97;;;2.00;;
18082;SDS011;9168;51.194;6.840;2023-07-29T13:27:10;3.97;;;2.33;;
18082;SDS011;9168;51.194;6.840;2023-07-29T13:29:37;5.55;;;2.30;;
18082;SDS011;9168;51.194;6.840;2023-07-29T13:32:04;5.57;;;2.53;;
18082;SDS011;9168;51.194;6.840;2023-07-29T13:34:33;3.72;;;2.38;;
18082;SDS011;9168;51.194;6.840;2023-07-29T13:37:00;3.40;;;2.20;;
18082;SDS011;9168;51.194;6.840;2023-07-29T13:39:27;4.07;;;2.42;;
18082;SDS011;9168;51.194;6.840;2023-07-29T13:41:54;3.50;;;2.15;;
18082;SDS011;9168;51.194;6.840;2023-07-29T13:44:21;6.43;;;2.50;;
18082;SDS011;9168;51.194;6.840;2023-07-29T13:46:47;3.85;;;2.17;;
18082;SDS011;9168;51.194;6.840;2023-07-29T13:49:14;3.80;;;2.17;;
18082;SDS011;9168;51.194;6.840;2023-07-29T13:51:43;5.15;;;2.05;;
18082;SDS011;9168;51.194;6.840;2023-07-29T13:54:09;3.85;;;2.42;;
18082;SDS011;9168;51.194;6.840;2023-07-29T13:56:36;4.45;;;2.10;;
18082;SDS011;9168;51.194;6.840;2023-07-29T13:59:03;6.15;;;2.20;;
18082;SDS011;9168;51.194;6.840;2023-07-29T14:01:30;5.35;;;2.20;;
18082;SDS011;9168;51.194;6.840;2023-07-29T14:03:57;5.75;;;2.45;;
18082;SDS011;9168;51.194;6.840;2023-07-29T14:06:24;2.97;;;2.10;;
18082;SDS011;9168;51.194;6.840;2023-07-29T14:08:52;10.98;;;2.53;;
18082;SDS011;9168;51.194;6.840;2023-07-29T14:11:19;5.32;;;2.40;;
18082;SDS011;9168;51.194;6.840;2023-07-29T14:13:46;5.72;;;2.63;;
18082;SDS011;9168;51.194;6.840;2023-07-29T14:16:12;5.63;;;2.45;;
18082;SDS011;9168;51.194;6.840;2023-07-29T14:18:39;7.30;;;2.80;;
18082;SDS011;9168;51.194;6.840;2023-07-29T14:21:06;5.93;;;2.97;;
18082;SDS011;9168;51.194;6.840;2023-07-29T14:23:33;7.90;;;2.85;;
18082;SDS011;9168;51.194;6.840;2023-07-29T14:26:01;4.28;;;2.78;;
18082;SDS011;9168;51.194;6.840;2023-07-29T14:28:28;5.05;;;2.72;;
18082;SDS011;9168;51.194;6.840;2023-07-29T14:30:56;4.88;;;2.50;;
18082;SDS011;9168;51.194;6.840;2023-07-29T14:33:22;3.15;;;2.38;;
18082;SDS011;9168;51.194;6.840;2023-07-29T14:35:50;6.18;;;2.45;;
18082;SDS011;9168;51.194;6.840;2023-07-29T14:38:17;2.95;;;2.00;;
18082;SDS011;9168;51.194;6.840;2023-07-29T14:40:43;5.75;;;2.47;;
18082;SDS011;9168;51.194;6.840;2023-07-29T14:43:15;5.50;;;1.90;;
18082;SDS011;9168;51.194;6.840;2023-07-29T14:45:41;4.20;;;2.35;;
18082;SDS011;9168;51.194;6.840;2023-07-29T14:48:08;3.63;;;2.53;;
18082;SDS011;9168;51.194;6.840;2023-07-29T14:50:35;5.95;;;2.40;;
18082;SDS011;9168;51.194;6.840;2023-07-29T14:53:02;5.18;;;2.13;;
18082;SDS011;9168;51.194;6.840;2023-07-29T14:55:29;5.13;;;2.10;;
18082;SDS011;9168;51.194;6.840;2023-07-29T14:57:56;2.92;;;2.03;;
18082;SDS011;9168;51.194;6.840;2023-07-29T15:00:24;5.28;;;2.40;;
18082;SDS011;9168;51.194;6.840;2023-07-29T15:02:51;5.65;;;2.42;;
18082;SDS011;9168;51.194;6.840;2023-07-29T15:05:18;4.05;;;2.30;;